Time;durP1;ratioP1;P1;durP2;ratioP2;P2;SDS_P1;SDS_P2;PMS_P1;PMS_P2;Temp;Humidity;BMP_temperature;BMP_pressure;BME280_temperature;BME280_humidity;BME280_pressure;Samples;Min_cycle;Max_cycle;Signal;HPM_P1;HPM_P2
2022/06/22 00:01:21;;;;;;;6.18;4.78;;;;;;;11.87;85.87;101233.47;5031940;28;20079;-93
2022/06/22 00:03:52;;;;;;;7.70;4.78;;;;;;;11.80;86.29;101239.84;5032282;28;20116;-92
2022/06/22 00:06:31;;;;;;;6.07;4.28;;;;;;;11.79;85.57;101240.09;5033557;28;20025;-93
2022/06/22 00:08:56;;;;;;;8.07;4.37;;;;;;;11.74;86.39;101232.00;5042628;28;20113;-92
2022/06/22 00:11:23;;;;;;;7.30;4.93;;;;;;;11.69;86.53;101234.63;5032629;28;20326;-92
2022/06/22 00:13:52;;;;;;;7.97;5.05;;;;;;;11.63;87.13;101215.00;5032388;28;20026;-92
2022/06/22 00:16:33;;;;;;;10.47;5.43;;;;;;;11.63;87.28;101226.56;5031845;28;20041;-92
2022/06/22 00:18:59;;;;;;;7.53;5.03;;;;;;;11.63;88.92;101209.63;5014060;28;20334;-92
2022/06/22 00:21:35;;;;;;;7.95;5.85;;;;;;;11.58;89.94;101210.41;5031245;28;20033;-94
2022/06/22 00:24:23;;;;;;;9.85;5.93;;;;;;;11.65;90.03;101202.13;5031159;28;20030;-92
2022/06/22 00:27:17;;;;;;;8.38;6.15;;;;;;;11.61;88.04;101195.66;5031279;28;20030;-92
2022/06/22 00:29:45;;;;;;;9.45;5.35;;;;;;;11.65;89.41;101202.13;5024505;28;20037;-94
2022/06/22 00:32:26;;;;;;;9.02;5.30;;;;;;;11.62;88.63;101216.88;5031606;28;20373;-92
2022/06/22 00:34:52;;;;;;;9.63;5.78;;;;;;;11.51;88.62;101199.88;5032056;28;20026;-93
2022/06/22 00:37:22;;;;;;;9.80;5.67;;;;;;;11.52;89.02;101204.19;5031986;28;20024;-92
2022/06/22 00:39:52;;;;;;;13.88;6.38;;;;;;;11.50;89.65;101206.31;5031898;28;20025;-93
2022/06/22 00:42:21;;;;;;;6.97;5.65;;;;;;;11.50;90.09;101194.78;5031601;28;20083;-92
2022/06/22 00:45:08;;;;;;;11.63;5.97;;;;;;;11.49;89.84;101196.63;5031742;28;20036;-93
2022/06/22 00:47:44;;;;;;;9.57;6.20;;;;;;;11.49;89.64;101202.00;5031023;28;20484;-93
2022/06/22 00:50:13;;;;;;;10.88;6.38;;;;;;;11.51;90.09;101220.53;5030993;28;20055;-93
2022/06/22 00:52:43;;;;;;;8.27;6.25;;;;;;;11.46;90.01;101220.50;5031202;28;20401;-93
2022/06/22 00:55:30;;;;;;;7.00;6.10;;;;;;;11.46;89.54;101217.81;5031344;28;20026;-94
2022/06/22 00:58:34;;;;;;;9.87;6.03;;;;;;;11.38;89.24;101205.66;5031397;28;20495;-93
2022/06/22 01:01:06;;;;;;;9.57;6.40;;;;;;;11.32;90.31;101202.09;5007618;28;20329;-92
2022/06/22 01:03:58;;;;;;;10.93;6.32;;;;;;;11.24;89.91;101199.06;5031230;28;20091;-92
2022/06/22 01:06:32;;;;;;;10.27;6.38;;;;;;;11.14;90.85;101194.41;5030884;28;20025;-93
2022/06/22 01:09:07;;;;;;;12.43;6.40;;;;;;;11.15;91.70;101186.13;5031455;28;20021;-92
2022/06/22 01:15:00;;;;;;;9.02;6.47;;;;;;;11.14;91.40;101194.41;5031222;28;20035;-91
2022/06/22 01:17:30;;;;;;;10.82;7.07;;;;;;;11.13;92.65;101200.88;5030935;28;20049;-93
2022/06/22 01:20:12;;;;;;;9.73;7.28;;;;;;;11.12;92.38;101210.75;5031180;28;20017;-93
2022/06/22 01:23:13;;;;;;;12.25;7.43;;;;;;;11.05;92.97;101210.13;5030937;28;20049;-92
2022/06/22 01:25:57;;;;;;;9.43;6.87;;;;;;;10.99;93.06;101228.06;5031051;28;20115;-93
2022/06/22 01:28:25;;;;;;;10.77;7.47;;;;;;;10.90;93.07;101213.47;5031195;28;20335;-91
2022/06/22 01:31:01;;;;;;;19.17;8.07;;;;;;;10.85;93.87;101195.47;5046039;28;20025;-93
2022/06/22 01:33:33;;;;;;;13.75;7.40;;;;;;;10.87;94.07;101196.00;5055137;28;20077;-94
2022/06/22 01:36:02;;;;;;;10.90;7.63;;;;;;;10.84;94.90;101195.69;5055200;28;20026;-93
2022/06/22 01:38:30;;;;;;;13.10;7.75;;;;;;;10.85;94.91;101184.75;5047445;28;20022;-93
2022/06/22 01:41:23;;;;;;;13.73;9.02;;;;;;;10.89;98.56;101182.38;5031912;28;20021;-93
2022/06/22 01:44:19;;;;;;;18.85;10.10;;;;;;;10.95;100.00;101176.00;5031388;28;20034;-93
2022/06/22 01:46:50;;;;;;;17.60;10.65;;;;;;;11.02;100.00;101178.50;5031365;28;20041;-93
2022/06/22 01:49:30;;;;;;;13.43;9.23;;;;;;;11.00;99.63;101177.94;5031589;28;20066;-93
2022/06/22 01:52:04;;;;;;;16.50;8.63;;;;;;;10.92;98.56;101173.81;5030890;28;20068;-92
2022/06/22 01:54:35;;;;;;;14.20;8.57;;;;;;;10.91;98.26;101177.56;5031468;28;20315;-93
2022/06/22 01:57:10;;;;;;;10.85;8.57;;;;;;;10.84;97.94;101174.25;5031284;28;20108;-92
2022/06/22 01:59:55;;;;;;;15.00;9.02;;;;;;;10.81;99.75;101182.78;5031115;28;20048;-93
2022/06/22 02:02:28;;;;;;;18.88;9.43;;;;;;;10.83;100.00;101186.03;5030455;28;20112;-93
2022/06/22 02:05:02;;;;;;;18.48;10.35;;;;;;;10.87;100.00;101181.81;5031319;28;20536;-93
2022/06/22 02:07:45;;;;;;;18.02;11.25;;;;;;;10.90;100.00;101176.75;5033158;28;20030;-93
2022/06/22 02:10:38;;;;;;;18.98;11.05;;;;;;;10.95;100.00;101181.38;5035019;28;20029;-93
2022/06/22 02:13:22;;;;;;;16.63;10.30;;;;;;;10.91;100.00;101186.41;5036510;28;20029;-92
2022/06/22 02:16:12;;;;;;;17.88;10.13;;;;;;;10.91;100.00;101182.94;5034422;28;20025;-93
2022/06/22 02:18:45;;;;;;;17.43;9.93;;;;;;;10.85;100.00;101173.19;5034710;28;20029;-93
2022/06/22 02:21:43;;;;;;;16.77;10.10;;;;;;;10.87;100.00;101181.81;5034456;28;20275;-94
2022/06/22 02:24:27;;;;;;;18.63;11.68;;;;;;;10.88;100.00;101167.34;5035173;28;20381;-94
2022/06/22 02:27:02;;;;;;;17.48;10.85;;;;;;;10.90;100.00;101181.31;5035000;28;20435;-94
2022/06/22 02:29:44;;;;;;;16.38;11.35;;;;;;;10.89;100.00;101171.63;5035715;28;20372;-93
2022/06/22 02:32:23;;;;;;;20.45;10.52;;;;;;;10.85;100.00;101160.63;5016992;28;20389;-93
2022/06/22 02:34:53;;;;;;;16.65;10.32;;;;;;;10.84;100.00;101160.84;5035018;28;20029;-94
2022/06/22 02:37:20;;;;;;;16.65;9.85;;;;;;;10.74;100.00;101148.97;5034813;28;20465;-93
2022/06/22 02:39:56;;;;;;;14.38;9.25;;;;;;;10.67;100.00;101137.63;5034799;28;20661;-93
2022/06/22 02:45:11;;;;;;;16.30;9.10;;;;;;;10.57;100.00;101145.56;5034790;28;20044;-91
2022/06/22 02:47:47;;;;;;;16.53;9.53;;;;;;;10.52;100.00;101158.88;5034259;28;20338;-92
2022/06/22 02:50:39;;;;;;;11.60;8.52;;;;;;;10.40;100.00;101145.59;5034159;28;20052;-92
2022/06/22 02:53:14;;;;;;;16.10;8.77;;;;;;;10.36;100.00;101139.09;5034179;28;20033;-92
2022/06/22 02:55:39;;;;;;;23.90;9.70;;;;;;;10.36;100.00;101149.78;5033895;28;20643;-93
2022/06/22 02:58:24;;;;;;;15.60;9.37;;;;;;;10.26;100.00;101158.50;5033908;28;20079;-92
2022/06/22 03:00:49;;;;;;;14.82;9.05;;;;;;;10.22;100.00;101160.09;5034150;28;20555;-92
2022/06/22 03:03:16;;;;;;;15.45;9.32;;;;;;;10.17;100.00;101162.69;5036918;28;20068;-92
2022/06/22 03:05:46;;;;;;;15.52;9.18;;;;;;;10.21;100.00;101172.66;5034254;28;20100;-91
2022/06/22 03:08:13;;;;;;;18.27;9.60;;;;;;;10.23;100.00;101170.53;5033869;28;20075;-93
2022/06/22 03:10:48;;;;;;;14.37;9.37;;;;;;;10.21;100.00;101169.16;5033009;28;20280;-92
2022/06/22 03:13:45;;;;;;;15.60;8.73;;;;;;;10.13;100.00;101167.72;5033080;28;20440;-92
2022/06/22 03:16:31;;;;;;;14.55;9.13;;;;;;;10.09;100.00;101166.59;4980578;28;20115;-92
2022/06/22 03:18:59;;;;;;;16.20;9.40;;;;;;;10.09;100.00;101171.94;5032507;28;20524;-93
2022/06/22 03:21:25;;;;;;;16.70;10.32;;;;;;;10.06;100.00;101162.53;5033081;28;20033;-93
2022/06/22 03:23:53;;;;;;;13.70;9.47;;;;;;;10.08;100.00;101168.44;5033098;28;20026;-93
2022/06/22 03:26:22;;;;;;;14.00;10.20;;;;;;;10.07;100.00;101158.00;5033144;28;20022;-94
2022/06/22 03:28:56;;;;;;;14.98;10.20;;;;;;;10.07;100.00;101141.94;5033102;28;20030;-93
2022/06/22 03:31:30;;;;;;;13.63;9.95;;;;;;;10.01;100.00;101138.38;5032241;28;20068;-94
2022/06/22 03:34:00;;;;;;;16.70;9.70;;;;;;;10.06;100.00;101151.00;5032491;28;20028;-93
2022/06/22 03:36:37;;;;;;;16.48;10.45;;;;;;;10.00;100.00;101144.78;5033313;28;20109;-92
2022/06/22 03:39:08;;;;;;;22.70;10.30;;;;;;;10.01;100.00;101149.06;5032718;28;20067;-93
2022/06/22 03:41:41;;;;;;;16.85;10.65;;;;;;;9.99;100.00;101145.84;5032795;28;20057;-93
2022/06/22 03:44:16;;;;;;;16.93;10.33;;;;;;;10.03;100.00;101152.31;5032938;28;20030;-93
2022/06/22 03:46:54;;;;;;;17.10;10.90;;;;;;;10.02;100.00;101150.69;5032518;28;20304;-94
2022/06/22 03:49:27;;;;;;;17.63;10.80;;;;;;;10.07;100.00;101148.06;5033439;28;20026;-94
2022/06/22 03:52:09;;;;;;;23.75;12.77;;;;;;;10.15;100.00;101136.97;5032729;28;20025;-94
2022/06/22 03:54:52;;;;;;;25.58;14.90;;;;;;;10.23;100.00;101129.53;5032889;28;20388;-94
2022/06/22 03:57:22;;;;;;;24.95;14.70;;;;;;;10.39;100.00;101133.25;5032176;28;20029;-94
2022/06/22 03:59:48;;;;;;;27.90;15.50;;;;;;;10.42;100.00;101132.78;5031632;28;20146;-94
2022/06/22 04:02:15;;;;;;;28.30;16.42;;;;;;;10.56;100.00;101133.22;5032375;28;20060;-94
2022/06/22 04:04:40;;;;;;;24.88;15.20;;;;;;;10.59;100.00;101138.06;5032368;28;20175;-94
2022/06/22 04:07:13;;;;;;;22.97;13.67;;;;;;;10.59;100.00;101138.06;5032398;28;20491;-94
2022/06/22 04:09:41;;;;;;;21.20;13.50;;;;;;;10.59;100.00;101138.06;5033595;28;20036;-91
2022/06/22 04:12:13;;;;;;;25.65;15.75;;;;;;;10.68;100.00;101139.25;5036261;28;20037;-92
2022/06/22 04:14:53;;;;;;;29.17;15.27;;;;;;;10.70;100.00;101134.44;5037079;28;20033;-92
2022/06/22 04:17:35;;;;;;;23.67;14.40;;;;;;;10.75;100.00;101134.50;5036148;28;20276;-92
2022/06/22 04:20:51;;;;;;;21.52;13.98;;;;;;;10.81;100.00;101145.25;5031901;28;20030;-93
2022/06/22 04:23:27;;;;;;;25.10;14.40;;;;;;;10.83;100.00;101143.16;5032263;28;20370;-93
2022/06/22 04:25:59;;;;;;;33.88;15.73;;;;;;;11.12;100.00;101149.06;5032078;28;20032;-93
2022/06/22 04:28:29;;;;;;;25.33;15.35;;;;;;;11.34;100.00;101162.41;5031707;28;20018;-93
2022/06/22 04:30:57;;;;;;;21.30;13.25;;;;;;;11.35;100.00;101152.50;5031621;28;20022;-93
2022/06/22 04:33:30;;;;;;;23.30;14.05;;;;;;;11.31;100.00;101154.91;5031671;28;20045;-93
2022/06/22 04:36:24;;;;;;;25.55;14.95;;;;;;;11.29;100.00;101151.66;5031606;28;20029;-92
2022/06/22 04:38:55;;;;;;;26.45;14.38;;;;;;;11.29;100.00;101151.66;5031285;28;20521;-92
2022/06/22 04:41:36;;;;;;;29.73;16.43;;;;;;;11.36;100.00;101154.94;5031424;28;20022;-93
2022/06/22 04:44:05;;;;;;;29.57;16.97;;;;;;;11.57;100.00;101163.16;5031589;28;20341;-94
2022/06/22 04:46:34;;;;;;;29.73;16.23;;;;;;;11.94;100.00;101165.03;5036128;28;20088;-94
2022/06/22 04:49:34;;;;;;;29.25;16.55;;;;;;;12.70;100.00;101156.84;5050478;28;20036;-94
2022/06/22 04:52:08;;;;;;;30.70;15.43;;;;;;;14.34;98.90;101168.72;5038534;28;20048;-96
2022/06/22 04:54:40;;;;;;;22.33;14.10;;;;;;;15.64;90.25;101174.19;5056570;28;20029;-95
2022/06/22 04:57:14;;;;;;;19.77;11.27;;;;;;;16.91;82.99;101182.28;5056604;28;20021;-96
2022/06/22 04:59:41;;;;;;;19.65;11.50;;;;;;;17.72;78.31;101189.44;5056223;28;20028;-94
2022/06/22 05:02:11;;;;;;;15.48;9.65;;;;;;;18.44;75.63;101193.56;5056549;28;20013;-94
2022/06/22 05:04:42;;;;;;;11.00;9.25;;;;;;;19.33;70.90;101197.94;5038929;28;20107;-94
2022/06/22 05:07:46;;;;;;;13.70;8.37;;;;;;;20.11;72.78;101208.47;5050160;28;20089;-95
2022/06/22 05:10:33;;;;;;;17.60;9.13;;;;;;;20.59;67.85;101203.34;5003769;28;20284;-94
2022/06/22 05:13:03;;;;;;;14.55;8.52;;;;;;;20.90;63.46;101198.97;5034298;28;20041;-96
2022/06/22 05:15:33;;;;;;;14.15;8.80;;;;;;;20.84;62.46;101211.91;5033664;28;20037;-95
2022/06/22 05:18:01;;;;;;;11.07;8.05;;;;;;;21.06;61.30;101207.44;5033318;28;20061;-95
2022/06/22 05:20:40;;;;;;;12.52;8.60;;;;;;;21.51;62.60;101198.09;5035202;28;20076;-95
2022/06/22 05:23:08;;;;;;;14.40;7.68;;;;;;;21.72;59.37;101204.50;5039394;28;20112;-95
2022/06/22 05:25:35;;;;;;;16.08;8.30;;;;;;;21.99;57.94;101197.06;5046825;28;20243;-94
2022/06/22 05:28:06;;;;;;;15.02;8.10;;;;;;;22.15;58.63;101210.16;5026792;28;20025;-95
2022/06/22 05:30:37;;;;;;;11.32;7.88;;;;;;;22.32;57.09;101196.44;5046740;28;20029;-94
2022/06/22 05:33:09;;;;;;;13.73;7.77;;;;;;;22.09;57.15;101209.53;5048787;28;20052;-95
2022/06/22 05:35:58;;;;;;;14.43;7.70;;;;;;;21.87;59.28;101218.75;5038590;28;20724;-95
2022/06/22 05:38:25;;;;;;;12.82;8.32;;;;;;;21.25;59.20;101205.19;5034679;28;20055;-95
2022/06/22 05:40:53;;;;;;;12.45;8.50;;;;;;;20.76;60.55;101193.66;5034499;28;20022;-95
2022/06/22 05:43:18;;;;;;;11.52;8.63;;;;;;;21.00;61.20;101212.25;5036459;28;20041;-94
2022/06/22 05:45:47;;;;;;;12.97;8.13;;;;;;;21.21;60.72;101215.13;5018930;28;20033;-95
2022/06/22 05:48:23;;;;;;;13.95;9.18;;;;;;;21.63;60.18;101217.38;5037177;28;20032;-95
2022/06/22 05:50:55;;;;;;;12.32;8.45;;;;;;;21.39;59.07;101224.09;5038440;28;20100;-95
2022/06/22 05:53:27;;;;;;;13.82;8.32;;;;;;;21.27;59.75;101227.47;5055271;28;20018;-94
2022/06/22 05:56:05;;;;;;;11.70;8.82;;;;;;;21.37;60.38;101239.16;5039232;28;20493;-94
2022/06/22 05:58:42;;;;;;;12.98;8.75;;;;;;;21.02;60.75;101234.53;5037766;28;20021;-95
2022/06/22 06:01:20;;;;;;;15.50;8.70;;;;;;;21.03;60.59;101231.47;5040880;28;20021;-95
2022/06/22 06:03:58;;;;;;;11.45;7.40;;;;;;;21.20;60.36;101229.88;5038965;28;20424;-95
2022/06/22 06:06:27;;;;;;;14.17;8.40;;;;;;;20.85;60.80;101246.19;5041662;28;20447;-95
2022/06/22 06:08:58;;;;;;;10.80;7.53;;;;;;;20.41;61.48;101248.75;5042009;28;20268;-95
2022/06/22 06:11:41;;;;;;;14.52;8.90;;;;;;;19.95;62.73;101232.56;5022552;28;20045;-94
2022/06/22 06:14:22;;;;;;;14.07;8.85;;;;;;;19.71;64.06;101243.75;5040770;28;20029;-96
2022/06/22 06:16:54;;;;;;;12.52;9.15;;;;;;;19.11;64.74;101242.16;5040757;28;20050;-96
2022/06/22 06:19:23;;;;;;;14.05;9.43;;;;;;;18.78;67.47;101243.09;5037806;28;20042;-95
2022/06/22 06:21:54;;;;;;;13.93;9.65;;;;;;;18.49;68.68;101238.00;5042207;28;20085;-95
2022/06/22 06:24:28;;;;;;;14.10;9.77;;;;;;;18.36;69.06;101236.88;5043320;28;20042;-95
2022/06/22 06:29:52;;;;;;;16.98;10.32;;;;;;;18.29;69.93;101235.34;5049423;28;20527;-95
2022/06/22 06:32:41;;;;;;;14.33;10.10;;;;;;;18.35;70.15;101241.47;5047747;28;20484;-95
2022/06/22 06:35:16;;;;;;;16.67;11.20;;;;;;;18.33;70.16;101245.59;5045685;28;20755;-95
2022/06/22 06:37:55;;;;;;;16.92;10.50;;;;;;;18.26;70.89;101244.09;5026048;28;20033;-95
2022/06/22 06:40:27;;;;;;;17.20;11.13;;;;;;;18.37;71.79;101241.97;5037163;28;20108;-94
2022/06/22 06:43:04;;;;;;;14.27;10.02;;;;;;;18.55;71.26;101247.63;5037591;28;20032;-95
2022/06/22 06:45:29;;;;;;;14.35;9.18;;;;;;;18.75;71.33;101247.22;5038852;28;20056;-95
2022/06/22 06:48:01;;;;;;;16.87;9.70;;;;;;;18.90;71.27;101237.94;5036752;28;20037;-94
2022/06/22 06:50:41;;;;;;;15.43;10.30;;;;;;;18.91;70.45;101217.00;5024838;28;20117;-93
2022/06/22 06:53:33;;;;;;;16.13;10.30;;;;;;;18.99;69.51;101223.69;5046829;28;20064;-94
2022/06/22 06:56:02;;;;;;;18.98;9.70;;;;;;;19.02;69.40;101206.75;5047411;28;20025;-93
2022/06/22 06:58:36;;;;;;;16.92;9.63;;;;;;;18.94;68.98;101210.97;5043539;28;20464;-94
2022/06/22 07:01:05;;;;;;;15.68;10.15;;;;;;;18.89;68.36;101220.03;5037066;28;20029;-94
2022/06/22 07:03:36;;;;;;;18.92;10.32;;;;;;;18.72;68.29;101217.16;5036509;28;20124;-95
2022/06/22 07:06:05;;;;;;;12.50;9.43;;;;;;;18.58;69.20;101215.28;5037594;28;20031;-95
2022/06/22 07:08:43;;;;;;;13.17;9.13;;;;;;;18.43;67.37;101200.09;5025027;28;20429;-95
2022/06/22 07:11:31;;;;;;;11.70;8.63;;;;;;;18.39;68.10;101196.38;5041443;28;20044;-94
2022/06/22 07:14:02;;;;;;;12.55;9.20;;;;;;;18.45;68.56;101199.78;5044111;28;20029;-94
2022/06/22 07:16:27;;;;;;;17.73;10.43;;;;;;;18.50;68.78;101202.41;5036053;28;20101;-94
2022/06/22 07:19:21;;;;;;;15.57;9.73;;;;;;;18.74;69.17;101212.25;5035564;28;20021;-93
2022/06/22 07:22:11;;;;;;;13.88;8.63;;;;;;;19.01;67.17;101205.16;5008694;28;20040;-94
2022/06/22 07:24:50;;;;;;;15.10;9.30;;;;;;;19.07;65.48;101209.38;5035798;28;20045;-94
2022/06/22 07:27:23;;;;;;;13.65;8.77;;;;;;;19.15;64.78;101214.09;5036724;28;20021;-93
2022/06/22 07:30:01;;;;;;;13.35;8.77;;;;;;;19.31;64.37;101200.16;5036730;28;20025;-94
2022/06/22 07:32:43;;;;;;;12.60;8.40;;;;;;;19.46;64.02;101194.34;5035740;28;20025;-94
2022/06/22 07:35:43;;;;;;;13.55;8.02;;;;;;;19.65;63.73;101185.97;5036081;28;20022;-94
2022/06/22 07:38:24;;;;;;;15.23;7.85;;;;;;;19.72;62.70;101182.81;5033772;28;20095;-93
2022/06/22 07:43:35;;;;;;;13.00;8.50;;;;;;;19.90;63.53;101174.81;5033432;28;20315;-94
2022/06/22 07:46:01;;;;;;;11.93;8.43;;;;;;;20.20;62.44;101189.47;5032768;28;20480;-94
2022/06/22 07:48:31;;;;;;;12.90;7.60;;;;;;;20.38;61.98;101195.78;5033440;28;20044;-94
2022/06/22 07:51:01;;;;;;;9.93;7.15;;;;;;;20.59;59.71;101197.91;5032590;28;20083;-94
2022/06/22 07:53:48;;;;;;;12.02;7.45;;;;;;;20.78;59.61;101208.53;5033180;28;20065;-94
2022/06/22 07:56:35;;;;;;;14.77;7.53;;;;;;;20.79;58.88;101198.47;5033464;28;20029;-94
2022/06/22 07:59:07;;;;;;;16.60;7.55;;;;;;;20.62;58.81;101200.00;5033908;28;20030;-94
2022/06/22 08:01:39;;;;;;;11.68;7.47;;;;;;;20.63;58.46;101200.78;5035965;28;20026;-94
2022/06/22 08:04:33;;;;;;;9.88;7.20;;;;;;;20.75;58.77;101206.41;5037280;28;20038;-93
2022/06/22 08:07:16;;;;;;;13.67;7.33;;;;;;;20.81;59.04;101194.28;5033872;28;20034;-94
2022/06/22 08:09:53;;;;;;;11.53;7.17;;;;;;;20.97;58.63;101200.09;5033393;28;20355;-94
2022/06/22 08:12:32;;;;;;;13.40;6.45;;;;;;;21.03;57.71;101208.88;5032893;28;20021;-94
2022/06/22 08:15:00;;;;;;;14.02;6.53;;;;;;;21.06;56.93;101204.72;5032736;28;20034;-94
2022/06/22 08:17:45;;;;;;;8.80;6.35;;;;;;;21.04;56.62;101213.22;5032160;28;20018;-92
2022/06/22 08:20:17;;;;;;;9.75;6.32;;;;;;;21.12;56.57;101209.69;5032291;28;20126;-93
2022/06/22 08:22:45;;;;;;;12.82;6.60;;;;;;;21.09;56.00;101213.03;5033385;28;20385;-94
2022/06/22 08:25:13;;;;;;;11.52;6.55;;;;;;;21.21;56.97;101212.41;5033157;28;20026;-93
2022/06/22 08:27:39;;;;;;;10.88;6.43;;;;;;;21.20;55.04;101210.78;5032589;28;20025;-94
2022/06/22 08:30:06;;;;;;;9.98;5.97;;;;;;;21.31;54.26;101216.72;5032701;28;20030;-93
2022/06/22 08:32:46;;;;;;;11.73;5.90;;;;;;;21.32;54.86;101227.31;5034460;28;20083;-93
2022/06/22 08:35:22;;;;;;;11.30;6.17;;;;;;;21.49;55.51;101215.59;5035786;28;20281;-94
2022/06/22 08:37:59;;;;;;;11.85;5.82;;;;;;;21.73;54.01;101218.94;5036802;28;20025;-94
2022/06/22 08:40:43;;;;;;;11.38;5.20;;;;;;;22.05;54.49;101214.84;5033088;28;20349;-95
2022/06/22 08:43:25;;;;;;;8.55;5.40;;;;;;;22.17;53.21;101225.06;5033812;28;20041;-93
2022/06/22 08:46:23;;;;;;;8.30;5.28;;;;;;;22.17;52.63;101214.16;5033356;28;20029;-94
2022/06/22 08:49:10;;;;;;;11.60;5.10;;;;;;;22.17;52.28;101216.88;5032334;28;20052;-95
2022/06/22 08:51:43;;;;;;;8.45;4.60;;;;;;;22.34;52.17;101216.00;5016357;28;20028;-95
2022/06/22 08:54:46;;;;;;;6.63;4.47;;;;;;;22.56;51.19;101219.59;5033354;28;20022;-95
2022/06/22 08:57:28;;;;;;;6.30;3.70;;;;;;;22.75;50.60;101219.19;5032808;28;20397;-96
2022/06/22 09:00:09;;;;;;;6.83;3.40;;;;;;;22.84;48.82;101221.84;5039671;28;20030;-93
2022/06/22 09:03:07;;;;;;;7.23;3.30;;;;;;;22.90;46.99;101208.78;5041246;28;20291;-94
2022/06/22 09:05:51;;;;;;;8.70;3.65;;;;;;;22.81;46.93;101206.94;5036465;28;20029;-94
2022/06/22 09:08:22;;;;;;;6.13;3.88;;;;;;;22.78;46.38;101207.59;5039670;28;20503;-93
2022/06/22 09:11:00;;;;;;;6.68;3.95;;;;;;;22.74;46.92;101208.56;5017667;28;20033;-94
2022/06/22 09:14:01;;;;;;;5.40;2.88;;;;;;;22.56;45.98;101205.94;5033419;28;20029;-94
2022/06/22 09:16:37;;;;;;;10.68;3.78;;;;;;;22.74;46.82;101212.09;4990229;28;20535;-95
2022/06/22 09:19:37;;;;;;;6.53;3.80;;;;;;;22.77;47.35;101216.91;5036822;28;20474;-94
2022/06/22 09:22:19;;;;;;;6.18;3.75;;;;;;;22.88;47.42;101230.97;5035476;28;20048;-93
2022/06/22 09:25:32;;;;;;;9.68;3.90;;;;;;;22.92;47.32;101228.38;5039529;28;20492;-94
2022/06/22 09:28:23;;;;;;;8.63;3.27;;;;;;;23.19;46.12;101226.25;5039929;28;20492;-95
2022/06/22 09:31:00;;;;;;;7.83;3.67;;;;;;;23.34;45.96;101227.59;5037686;28;20299;-92
2022/06/22 09:33:48;;;;;;;11.30;3.28;;;;;;;23.51;45.09;101234.84;5043421;28;20037;-94
2022/06/22 09:36:16;;;;;;;7.53;3.33;;;;;;;23.65;45.74;101226.31;5042335;28;20048;-93
2022/06/22 09:38:56;;;;;;;4.97;3.13;;;;;;;23.66;43.78;101214.25;5042068;28;20028;-93
2022/06/22 09:41:51;;;;;;;6.13;2.92;;;;;;;23.96;44.27;101223.09;5037629;28;20388;-94
2022/06/22 09:44:38;;;;;;;3.95;2.38;;;;;;;24.19;43.34;101225.41;5036719;28;20045;-94
2022/06/22 09:47:49;;;;;;;5.68;2.95;;;;;;;24.28;42.89;101217.09;5036461;28;20100;-95
2022/06/22 09:50:25;;;;;;;6.32;2.90;;;;;;;24.18;42.91;101226.56;5037294;28;20489;-95
2022/06/22 09:53:09;;;;;;;5.78;3.25;;;;;;;24.29;42.33;101222.22;5038895;28;20021;-94
2022/06/22 09:58:50;;;;;;;8.00;2.80;;;;;;;24.29;41.04;101208.53;5037535;28;20271;-95
2022/06/22 10:01:36;;;;;;;5.63;3.20;;;;;;;24.31;40.62;101219.94;5037161;28;20036;-94
2022/06/22 10:04:35;;;;;;;6.75;2.95;;;;;;;24.30;40.91;101210.13;5036826;28;20034;-94
2022/06/22 10:07:28;;;;;;;7.07;2.70;;;;;;;24.33;41.72;101211.41;5037244;28;20030;-95
2022/06/22 10:10:14;;;;;;;4.93;2.60;;;;;;;24.57;41.25;101210.56;5035839;28;20034;-95
2022/06/22 10:13:01;;;;;;;6.18;2.28;;;;;;;24.74;40.33;101208.75;5038628;28;20149;-95
2022/06/22 10:16:03;;;;;;;7.57;3.35;;;;;;;24.84;39.67;101207.47;5037230;28;20041;-95
2022/06/22 10:18:52;;;;;;;6.28;2.40;;;;;;;24.93;39.67;101200.72;5035875;28;20057;-94
2022/06/22 10:21:39;;;;;;;8.15;3.10;;;;;;;24.97;39.31;101210.97;5037019;28;20029;-95
2022/06/22 10:24:20;;;;;;;16.00;2.90;;;;;;;25.00;38.75;101202.06;5036857;28;20048;-96
2022/06/22 10:27:09;;;;;;;6.03;2.67;;;;;;;25.10;38.89;101191.41;5035976;28;20284;-95
2022/06/22 10:29:37;;;;;;;4.47;2.80;;;;;;;25.18;38.45;101188.84;5035145;28;20091;-93
2022/06/22 10:32:26;;;;;;;8.27;2.78;;;;;;;25.20;38.03;101192.81;5035465;28;20440;-94
2022/06/22 10:35:23;;;;;;;4.57;2.85;;;;;;;25.33;39.31;101196.31;5034973;28;20037;-95
2022/06/22 10:37:57;;;;;;;8.45;3.67;;;;;;;25.05;38.94;101182.59;5036280;28;20036;-95
2022/06/22 10:46:38;;;;;;;7.78;2.65;;;;;;;25.27;38.93;101189.50;5035162;28;20400;-95
2022/06/22 10:49:16;;;;;;;4.43;2.38;;;;;;;25.45;37.90;101192.75;5017338;28;20079;-94
2022/06/22 10:52:16;;;;;;;6.03;2.63;;;;;;;25.61;36.04;101194.72;5035007;28;20032;-94
2022/06/22 10:55:02;;;;;;;6.83;2.83;;;;;;;25.69;37.14;101185.53;5035108;28;20284;-94
2022/06/22 10:57:56;;;;;;;4.53;2.60;;;;;;;25.96;36.36;101185.78;5034710;28;20113;-94
2022/06/22 11:00:49;;;;;;;4.38;2.97;;;;;;;26.13;36.15;101184.66;5035400;28;20116;-95
2022/06/22 11:03:35;;;;;;;6.25;3.05;;;;;;;26.37;37.13;101180.88;5039674;28;20052;-95
2022/06/22 11:06:34;;;;;;;9.52;2.97;;;;;;;26.68;36.18;101190.19;5034131;28;20026;-93
2022/06/22 11:09:28;;;;;;;6.30;2.92;;;;;;;26.62;37.44;101172.41;5034451;28;20060;-93
2022/06/22 11:12:25;;;;;;;5.00;2.70;;;;;;;26.42;36.49;101172.38;5035522;28;20087;-94
2022/06/22 11:15:14;;;;;;;5.68;2.70;;;;;;;26.25;36.81;101190.03;5035519;28;20117;-94
2022/06/22 11:17:53;;;;;;;4.80;2.63;;;;;;;26.51;35.40;101183.16;5033803;28;20022;-94
2022/06/22 11:20:38;;;;;;;7.40;2.30;;;;;;;26.57;35.99;101180.94;5033186;28;20032;-95
2022/06/22 11:23:10;;;;;;;4.23;2.60;;;;;;;26.71;35.01;101177.69;5035561;28;20306;-94
2022/06/22 11:31:57;;;;;;;4.32;2.53;;;;;;;27.12;35.29;101172.63;5037290;28;20037;-94
2022/06/22 11:34:50;;;;;;;9.27;2.92;;;;;;;27.15;35.08;101180.16;5039736;28;20037;-94
2022/06/22 11:37:43;;;;;;;7.43;2.70;;;;;;;26.72;35.73;101182.81;5034431;28;20345;-94
2022/06/22 11:40:23;;;;;;;8.75;3.25;;;;;;;26.36;35.37;101182.03;5032620;28;20057;-93
2022/06/22 11:43:10;;;;;;;5.93;2.47;;;;;;;26.44;36.22;101183.81;5015710;28;20083;-93
2022/06/22 11:45:55;;;;;;;8.52;3.00;;;;;;;26.28;35.08;101181.09;5033024;28;20049;-94
2022/06/22 11:48:29;;;;;;;5.20;2.70;;;;;;;26.49;35.86;101188.22;5033126;28;20112;-93
2022/06/22 11:51:09;;;;;;;6.40;2.40;;;;;;;26.61;34.40;101188.09;5032751;28;20330;-94
2022/06/22 11:54:04;;;;;;;12.05;2.65;;;;;;;26.90;34.93;101190.66;5034013;28;20045;-94
2022/06/22 11:56:59;;;;;;;4.85;2.20;;;;;;;26.62;35.08;101186.16;5032741;28;20033;-94
2022/06/22 11:59:43;;;;;;;8.73;2.80;;;;;;;26.83;34.50;101182.31;5035282;28;20120;-94
2022/06/22 12:02:47;;;;;;;6.03;2.63;;;;;;;26.70;34.69;101189.84;5035104;28;20060;-94
2022/06/22 12:05:57;;;;;;;2.60;2.20;;;;;;;26.85;34.82;101188.22;5035880;28;20017;-94
2022/06/22 12:08:44;;;;;;;5.15;2.50;;;;;;;27.07;34.78;101183.97;5037540;28;20025;-95
2022/06/22 12:11:51;;;;;;;7.20;2.60;;;;;;;27.25;34.61;101170.53;5036249;28;20030;-95
2022/06/22 12:17:26;;;;;;;5.33;2.53;;;;;;;27.58;33.46;101179.41;5034003;28;20094;-93
2022/06/22 12:19:57;;;;;;;4.03;2.40;;;;;;;27.45;32.23;101179.56;5037437;28;20265;-93
2022/06/22 12:22:43;;;;;;;3.90;2.40;;;;;;;27.70;33.59;101164.66;5036576;28;20026;-94
2022/06/22 12:25:43;;;;;;;6.43;2.55;;;;;;;27.85;33.92;101155.47;5037144;28;20038;-95
2022/06/22 12:28:15;;;;;;;4.35;1.80;;;;;;;27.99;29.93;101159.59;5033602;28;20103;-94
2022/06/22 12:31:07;;;;;;;4.32;1.67;;;;;;;27.99;29.85;101145.84;5033182;28;20041;-94
2022/06/22 12:34:00;;;;;;;4.07;1.73;;;;;;;28.13;29.94;101151.59;5033378;28;20112;-94
2022/06/22 12:36:48;;;;;;;3.28;2.33;;;;;;;28.25;30.75;101143.13;5003774;28;20041;-93
2022/06/22 12:39:20;;;;;;;6.68;1.90;;;;;;;28.60;29.86;101137.66;5014315;28;20025;-94
2022/06/22 12:42:10;;;;;;;5.00;1.90;;;;;;;28.53;30.69;101139.16;5031872;28;20025;-95